Time;durP1;ratioP1;P1;durP2;ratioP2;P2;SDS_P1;SDS_P2;PMS_P1;PMS_P2;Temp;Humidity;BMP_temperature;BMP_pressure;BME280_temperature;BME280_humidity;BME280_pressure;Samples;Min_cycle;Max_cycle;Signal;HPM_P1;HPM_P2
2022/06/10 00:01:53;;;;;;;7.90;4.70;;;;;;;;;;5016887;28;20029;-76
2022/06/10 00:04:19;;;;;;;7.47;5.20;;;;;;;;;;5017403;28;20113;-75
2022/06/10 00:06:44;;;;;;;6.50;4.80;;;;;;;;;;5016863;28;20306;-76
2022/06/10 00:09:09;;;;;;;7.00;4.18;;;;;;;;;;5016873;28;20270;-76
2022/06/10 00:11:34;;;;;;;6.63;4.18;;;;;;;;;;5016794;28;20021;-76
2022/06/10 00:14:00;;;;;;;8.82;4.60;;;;;;;;;;5016851;28;20060;-76
2022/06/10 00:16:25;;;;;;;11.07;4.30;;;;;;;;;;5017165;28;20026;-75
2022/06/10 00:18:51;;;;;;;8.17;3.93;;;;;;;;;;5017167;28;20275;-77
2022/06/10 00:21:18;;;;;;;7.00;3.92;;;;;;;;;;5016692;28;20266;-77
2022/06/10 00:23:44;;;;;;;7.22;3.90;;;;;;;;;;5016514;28;20025;-77
2022/06/10 00:26:10;;;;;;;6.00;3.30;;;;;;;;;;5016589;28;20037;-77
2022/06/10 00:28:36;;;;;;;4.00;3.03;;;;;;;;;;5016881;28;20251;-77
2022/06/10 00:31:01;;;;;;;3.97;3.13;;;;;;;;;;5016441;28;20028;-77
2022/06/10 00:33:26;;;;;;;5.25;3.13;;;;;;;;;;5016124;28;20402;-77
2022/06/10 00:35:52;;;;;;;7.95;3.42;;;;;;;;;;5016855;28;20038;-77
2022/06/10 00:38:18;;;;;;;6.72;3.30;;;;;;;;;;5016528;28;20463;-77
2022/06/10 00:40:50;;;;;;;5.03;3.30;;;;;;;;;;4997416;28;20026;-77
2022/06/10 00:43:18;;;;;;;5.13;3.05;;;;;;;;;;5015611;28;20041;-77
2022/06/10 00:46:25;;;;;;;5.05;3.03;;;;;;;;;;5016148;28;20032;-75
2022/06/10 00:49:05;;;;;;;6.78;3.63;;;;;;;;;;4917827;29;20107;-74
2022/06/10 00:51:39;;;;;;;3.58;2.63;;;;;;;;;;4917696;29;20024;-76
2022/06/10 00:54:28;;;;;;;5.32;3.00;;;;;;;;;;4980594;28;20034;-76
2022/06/10 00:57:13;;;;;;;4.78;2.80;;;;;;;;;;4998417;28;20033;-76
2022/06/10 00:59:42;;;;;;;3.75;2.72;;;;;;;;;;5016075;28;20049;-75
2022/06/10 01:02:12;;;;;;;5.07;2.95;;;;;;;;;;5015899;28;20387;-75
2022/06/10 01:04:40;;;;;;;4.72;2.53;;;;;;;;;;5016193;28;20030;-77
2022/06/10 01:07:07;;;;;;;5.25;2.60;;;;;;;;;;4998161;28;20025;-76
2022/06/10 01:09:33;;;;;;;5.32;2.83;;;;;;;;;;5015356;28;20028;-77
2022/06/10 01:12:13;;;;;;;5.00;2.60;;;;;;;;;;5015734;28;20068;-75
2022/06/10 01:15:04;;;;;;;4.18;2.70;;;;;;;;;;4998096;28;20033;-77
2022/06/10 01:17:38;;;;;;;8.60;2.80;;;;;;;;;;5015557;28;20026;-76
2022/06/10 01:20:12;;;;;;;7.88;2.85;;;;;;;;;;5015990;28;20041;-77
2022/06/10 01:23:02;;;;;;;4.47;2.60;;;;;;;;;;4997714;28;20025;-75
2022/06/10 01:25:48;;;;;;;5.57;2.67;;;;;;;;;;5015497;28;20025;-76
2022/06/10 01:28:25;;;;;;;4.90;2.60;;;;;;;;;;5015624;28;20022;-77
2022/06/10 01:31:02;;;;;;;4.97;2.63;;;;;;;;;;4997753;28;20026;-77
2022/06/10 01:34:01;;;;;;;3.70;2.70;;;;;;;;;;5015148;28;20120;-76
2022/06/10 01:36:47;;;;;;;5.68;2.80;;;;;;;;;;5015404;28;20025;-76
2022/06/10 01:39:21;;;;;;;4.82;2.83;;;;;;;;;;5015104;28;20030;-75
2022/06/10 01:42:30;;;;;;;5.30;2.72;;;;;;;;;;5015309;28;20033;-77
2022/06/10 01:45:15;;;;;;;7.43;2.95;;;;;;;;;;5015405;28;20053;-76
2022/06/10 01:47:57;;;;;;;4.78;2.75;;;;;;;;;;5015530;28;20060;-76
2022/06/10 01:50:40;;;;;;;4.43;2.85;;;;;;;;;;5015255;28;20025;-76
2022/06/10 01:53:12;;;;;;;3.85;2.75;;;;;;;;;;5015227;28;20030;-76
2022/06/10 01:56:00;;;;;;;5.30;3.00;;;;;;;;;;5015368;28;20021;-76
2022/06/10 01:58:39;;;;;;;3.60;2.97;;;;;;;;;;5014920;28;20072;-75
2022/06/10 02:01:13;;;;;;;7.50;3.13;;;;;;;;;;4997922;28;20483;-76
2022/06/10 02:03:47;;;;;;;5.07;2.97;;;;;;;;;;5026122;28;20049;-75
2022/06/10 02:06:44;;;;;;;5.20;2.90;;;;;;;;;;5027606;28;20045;-76
2022/06/10 02:09:15;;;;;;;6.82;2.90;;;;;;;;;;5025752;28;20446;-75
2022/06/10 02:11:44;;;;;;;4.70;2.92;;;;;;;;;;5026924;28;20021;-74
2022/06/10 02:14:15;;;;;;;5.55;3.13;;;;;;;;;;5026664;28;20029;-74
2022/06/10 02:16:45;;;;;;;6.00;3.10;;;;;;;;;;5009312;28;20028;-75
2022/06/10 02:19:21;;;;;;;4.20;2.85;;;;;;;;;;5011189;28;20034;-75
2022/06/10 02:21:55;;;;;;;9.63;2.78;;;;;;;;;;5027089;28;20030;-75
2022/06/10 02:24:26;;;;;;;3.97;2.85;;;;;;;;;;5029031;28;20013;-75
2022/06/10 02:26:57;;;;;;;6.63;3.63;;;;;;;;;;5026622;28;20026;-76
2022/06/10 02:29:29;;;;;;;6.68;3.30;;;;;;;;;;5014766;28;20033;-77
2022/06/10 02:31:57;;;;;;;5.53;3.17;;;;;;;;;;5014406;28;20029;-76
2022/06/10 02:34:23;;;;;;;4.53;3.00;;;;;;;;;;5014420;28;20041;-75
2022/06/10 02:37:01;;;;;;;5.22;3.00;;;;;;;;;;5014336;28;20108;-76
2022/06/10 02:39:55;;;;;;;6.38;3.47;;;;;;;;;;5014561;28;20460;-76
2022/06/10 02:42:32;;;;;;;6.13;2.88;;;;;;;;;;5014161;28;20483;-76
2022/06/10 02:45:27;;;;;;;10.23;3.08;;;;;;;;;;5014381;28;20041;-76
2022/06/10 02:48:04;;;;;;;4.70;3.17;;;;;;;;;;5014045;28;20061;-76
2022/06/10 02:50:29;;;;;;;4.57;3.10;;;;;;;;;;5014050;28;20057;-76
2022/06/10 02:52:55;;;;;;;7.05;3.42;;;;;;;;;;5014053;28;20072;-76
2022/06/10 02:55:23;;;;;;;4.50;3.15;;;;;;;;;;5013729;28;20372;-76
2022/06/10 03:01:12;;;;;;;5.03;3.15;;;;;;;;;;5014198;28;20125;-76
2022/06/10 03:03:40;;;;;;;;;;;;;;;;;;5013931;28;20037;-76
2022/06/10 03:06:14;;;;;;;6.05;3.22;;;;;;;;;;5013707;28;19951;-75
2022/06/10 03:08:44;;;;;;;5.28;2.97;;;;;;;;;;5013519;28;20109;-76
2022/06/10 03:11:32;;;;;;;5.70;3.22;;;;;;;;;;5013467;28;20026;-76
2022/06/10 03:14:29;;;;;;;5.13;3.15;;;;;;;;;;5013469;28;20048;-75
2022/06/10 03:17:08;;;;;;;8.70;3.60;;;;;;;;;;5013397;28;20030;-75
2022/06/10 03:19:46;;;;;;;5.28;3.08;;;;;;;;;;5013723;28;20065;-76
2022/06/10 03:22:46;;;;;;;4.45;3.45;;;;;;;;;;5013628;28;20022;-76
2022/06/10 03:25:30;;;;;;;4.72;2.95;;;;;;;;;;5013825;28;20033;-75
2022/06/10 03:28:12;;;;;;;8.85;3.53;;;;;;;;;;5013562;28;20080;-75
2022/06/10 03:30:47;;;;;;;7.20;3.30;;;;;;;;;;4995657;28;20547;-75
2022/06/10 03:33:28;;;;;;;6.68;3.42;;;;;;;;;;5017098;28;20179;-74
2022/06/10 03:36:00;;;;;;;5.03;3.10;;;;;;;;;;5020144;28;20550;-76
2022/06/10 03:38:27;;;;;;;7.40;3.22;;;;;;;;;;5019735;28;20037;-76
2022/06/10 03:40:57;;;;;;;5.68;3.38;;;;;;;;;;5019884;28;20125;-75
2022/06/10 03:43:24;;;;;;;7.47;3.17;;;;;;;;;;5019942;28;20030;-75
2022/06/10 03:45:59;;;;;;;9.30;3.25;;;;;;;;;;5019914;28;20022;-76
2022/06/10 03:48:27;;;;;;;5.50;3.10;;;;;;;;;;5020042;28;20026;-76
2022/06/10 03:50:54;;;;;;;7.20;2.75;;;;;;;;;;5019561;28;20038;-75
2022/06/10 03:53:23;;;;;;;8.57;3.10;;;;;;;;;;5001952;28;20025;-76
2022/06/10 03:55:49;;;;;;;6.57;3.28;;;;;;;;;;5019618;28;20030;-75
2022/06/10 03:58:14;;;;;;;4.75;2.95;;;;;;;;;;5019866;28;20382;-75
2022/06/10 04:00:40;;;;;;;7.03;3.35;;;;;;;;;;5019669;28;20025;-75
2022/06/10 04:03:06;;;;;;;7.03;3.20;;;;;;;;;;5019859;28;20026;-75
2022/06/10 04:05:32;;;;;;;6.82;3.10;;;;;;;;;;5020426;28;20360;-77
2022/06/10 04:07:57;;;;;;;7.10;3.10;;;;;;;;;;5002718;28;20033;-76
2022/06/10 04:10:25;;;;;;;9.65;3.30;;;;;;;;;;5019941;28;20083;-76
2022/06/10 04:12:51;;;;;;;5.32;3.00;;;;;;;;;;5020426;28;20037;-76
2022/06/10 04:15:17;;;;;;;6.75;3.10;;;;;;;;;;5019729;28;20037;-76
2022/06/10 04:17:47;;;;;;;14.25;3.60;;;;;;;;;;5019661;28;20520;-76
2022/06/10 04:20:20;;;;;;;5.22;2.85;;;;;;;;;;5019758;28;20398;-75
2022/06/10 04:22:45;;;;;;;7.40;2.88;;;;;;;;;;5001836;28;20021;-76
2022/06/10 04:25:10;;;;;;;7.32;3.03;;;;;;;;;;5019697;28;20028;-75
2022/06/10 04:27:36;;;;;;;6.40;3.63;;;;;;;;;;5019971;28;20052;-74
2022/06/10 04:30:02;;;;;;;8.07;2.85;;;;;;;;;;5019850;28;20022;-75
2022/06/10 04:32:28;;;;;;;6.78;3.03;;;;;;;;;;5019455;28;20033;-76
2022/06/10 04:34:53;;;;;;;5.18;3.05;;;;;;;;;;5019644;28;20026;-77
2022/06/10 04:37:18;;;;;;;7.20;2.97;;;;;;;;;;5019403;28;20108;-75
2022/06/10 04:39:43;;;;;;;4.38;2.92;;;;;;;;;;5019937;28;20287;-77
2022/06/10 04:42:09;;;;;;;4.28;3.03;;;;;;;;;;5001733;28;20112;-76
2022/06/10 04:44:34;;;;;;;5.75;3.17;;;;;;;;;;5017323;28;20028;-75
2022/06/10 04:47:00;;;;;;;5.82;2.83;;;;;;;;;;4999127;28;20429;-76
2022/06/10 04:49:25;;;;;;;6.50;3.72;;;;;;;;;;5016527;28;20022;-74
2022/06/10 04:51:50;;;;;;;4.53;2.70;;;;;;;;;;4998714;28;20459;-75
2022/06/10 04:54:15;;;;;;;6.03;2.87;;;;;;;;;;5016221;28;20025;-77
2022/06/10 04:56:40;;;;;;;6.13;3.23;;;;;;;;;;5016045;28;20262;-75
2022/06/10 04:59:06;;;;;;;5.93;3.37;;;;;;;;;;5015967;28;20279;-77
2022/06/10 05:01:31;;;;;;;7.05;2.97;;;;;;;;;;5015875;28;20259;-75
2022/06/10 05:03:57;;;;;;;5.25;2.90;;;;;;;;;;5015623;28;20049;-76
2022/06/10 05:06:22;;;;;;;5.07;2.50;;;;;;;;;;5015635;28;20495;-76
2022/06/10 05:08:47;;;;;;;8.18;3.25;;;;;;;;;;4998118;28;20625;-75
2022/06/10 05:11:14;;;;;;;4.07;2.38;;;;;;;;;;5015475;28;20475;-75
2022/06/10 05:13:39;;;;;;;7.45;2.60;;;;;;;;;;5015508;28;20080;-74
2022/06/10 05:16:05;;;;;;;4.93;2.73;;;;;;;;;;5015658;28;20034;-76
2022/06/10 05:18:31;;;;;;;6.80;2.80;;;;;;;;;;4997778;28;20357;-77
2022/06/10 05:20:57;;;;;;;3.95;2.50;;;;;;;;;;4997899;28;20479;-76
2022/06/10 05:23:24;;;;;;;6.32;2.70;;;;;;;;;;5015410;28;20044;-75
2022/06/10 05:25:50;;;;;;;4.35;2.72;;;;;;;;;;5015290;28;20022;-77
2022/06/10 05:28:16;;;;;;;10.70;2.60;;;;;;;;;;5015516;28;20018;-76
2022/06/10 05:30:43;;;;;;;5.10;2.42;;;;;;;;;;5015614;28;20072;-76
2022/06/10 05:33:09;;;;;;;5.47;2.65;;;;;;;;;;4997540;28;20057;-75
2022/06/10 05:35:35;;;;;;;6.30;2.60;;;;;;;;;;5015493;28;20543;-77
2022/06/10 05:38:01;;;;;;;4.90;2.17;;;;;;;;;;5015267;28;20406;-76
2022/06/10 05:40:29;;;;;;;8.48;2.67;;;;;;;;;;4997518;28;20017;-76
2022/06/10 05:42:54;;;;;;;5.38;2.28;;;;;;;;;;5014829;28;20078;-76
2022/06/10 05:45:21;;;;;;;5.15;2.25;;;;;;;;;;4997401;28;20041;-76
2022/06/10 05:47:49;;;;;;;3.78;1.85;;;;;;;;;;4997750;28;20029;-76
2022/06/10 05:50:21;;;;;;;4.07;2.00;;;;;;;;;;5014798;28;20371;-75
2022/06/10 05:52:47;;;;;;;4.35;1.80;;;;;;;;;;5015116;28;20025;-77
2022/06/10 05:55:12;;;;;;;3.95;1.95;;;;;;;;;;5014652;28;20116;-75
2022/06/10 05:57:39;;;;;;;14.55;2.28;;;;;;;;;;5014706;28;20399;-77
2022/06/10 06:00:09;;;;;;;5.63;2.00;;;;;;;;;;5014770;28;20493;-77
2022/06/10 06:02:34;;;;;;;4.07;2.20;;;;;;;;;;5014617;28;20065;-77
2022/06/10 06:04:59;;;;;;;4.10;1.77;;;;;;;;;;5014722;28;20395;-76
2022/06/10 06:07:28;;;;;;;4.47;1.98;;;;;;;;;;5014745;28;20034;-76
2022/06/10 06:09:54;;;;;;;4.88;1.70;;;;;;;;;;5014964;28;20129;-77
2022/06/10 06:12:20;;;;;;;4.95;2.47;;;;;;;;;;5014562;28;20487;-77
2022/06/10 06:14:46;;;;;;;5.70;2.03;;;;;;;;;;5014943;28;20372;-77
2022/06/10 06:17:12;;;;;;;2.53;1.60;;;;;;;;;;5014613;28;20080;-76
2022/06/10 06:19:38;;;;;;;2.72;1.40;;;;;;;;;;5014699;28;20387;-77
2022/06/10 06:22:03;;;;;;;1.92;1.48;;;;;;;;;;4996621;28;20018;-76
2022/06/10 06:24:33;;;;;;;7.93;1.50;;;;;;;;;;5014205;28;20025;-76
2022/06/10 06:26:58;;;;;;;4.43;1.65;;;;;;;;;;5014810;28;20022;-76
2022/06/10 06:29:24;;;;;;;4.10;1.55;;;;;;;;;;5014240;28;20524;-76
2022/06/10 06:31:51;;;;;;;6.68;1.50;;;;;;;;;;5014344;28;20041;-75
2022/06/10 06:34:16;;;;;;;2.97;1.40;;;;;;;;;;5014182;28;20045;-76
2022/06/10 06:36:47;;;;;;;6.43;1.37;;;;;;;;;;5014615;28;20115;-77
2022/06/10 06:39:13;;;;;;;2.83;1.38;;;;;;;;;;5013890;28;20803;-75
2022/06/10 06:41:38;;;;;;;2.22;1.20;;;;;;;;;;5014115;28;20034;-76
2022/06/10 06:44:05;;;;;;;3.63;1.40;;;;;;;;;;5013867;28;20030;-76
2022/06/10 06:46:32;;;;;;;1.65;1.10;;;;;;;;;;5014006;28;20108;-77
2022/06/10 06:48:57;;;;;;;3.05;1.30;;;;;;;;;;5013956;28;20036;-76
2022/06/10 06:51:22;;;;;;;3.00;1.33;;;;;;;;;;5013973;28;20442;-77
2022/06/10 06:53:47;;;;;;;6.03;1.40;;;;;;;;;;5013741;28;20279;-77
2022/06/10 06:56:12;;;;;;;2.83;1.20;;;;;;;;;;5013700;28;20057;-76
2022/06/10 06:58:38;;;;;;;5.32;1.50;;;;;;;;;;5013688;28;20279;-77
2022/06/10 07:01:03;;;;;;;6.20;1.30;;;;;;;;;;5013909;28;20485;-75
2022/06/10 07:03:28;;;;;;;4.07;1.30;;;;;;;;;;5013729;28;20026;-76
2022/06/10 07:05:53;;;;;;;4.13;1.07;;;;;;;;;;5013683;28;20017;-76
2022/06/10 07:08:19;;;;;;;4.13;1.20;;;;;;;;;;5012834;28;20256;-76
2022/06/10 07:10:45;;;;;;;5.35;1.10;;;;;;;;;;5013587;28;20341;-77
2022/06/10 07:13:12;;;;;;;1.67;1.17;;;;;;;;;;5013580;28;20063;-76
2022/06/10 07:15:39;;;;;;;3.22;1.20;;;;;;;;;;5013727;28;20108;-76
2022/06/10 07:18:05;;;;;;;2.05;1.15;;;;;;;;;;5013204;28;20479;-76
2022/06/10 07:20:33;;;;;;;4.90;1.25;;;;;;;;;;5013534;28;20041;-77
2022/06/10 07:22:59;;;;;;;3.88;1.33;;;;;;;;;;5013502;28;20115;-76
2022/06/10 07:25:26;;;;;;;2.67;1.10;;;;;;;;;;5013160;28;20053;-76
2022/06/10 07:27:55;;;;;;;3.45;1.40;;;;;;;;;;5013439;28;20026;-76
2022/06/10 07:30:26;;;;;;;5.68;1.20;;;;;;;;;;5013326;28;20048;-76
2022/06/10 07:32:52;;;;;;;3.58;1.40;;;;;;;;;;5013361;28;20042;-76
2022/06/10 07:35:20;;;;;;;4.10;1.30;;;;;;;;;;5013369;28;20076;-75
2022/06/10 07:37:46;;;;;;;4.38;1.27;;;;;;;;;;5013188;28;20080;-76
2022/06/10 07:41:56;;;;;;;4.05;1.30;;;;;;;;;;5013137;28;20033;-76
2022/06/10 07:43:01;;;;;;;5.28;1.40;;;;;;;;;;5012949;28;20040;-76
2022/06/10 07:45:28;;;;;;;5.40;1.50;;;;;;;;;;4995877;28;20113;-75
2022/06/10 07:47:53;;;;;;;5.75;1.30;;;;;;;;;;4995501;28;20255;-76
2022/06/10 07:50:21;;;;;;;4.60;1.45;;;;;;;;;;5013515;28;20025;-74
2022/06/10 07:52:47;;;;;;;2.85;1.30;;;;;;;;;;5012834;28;20116;-75
2022/06/10 07:55:12;;;;;;;5.55;1.35;;;;;;;;;;5013040;28;20402;-75
2022/06/10 07:57:37;;;;;;;3.43;1.30;;;;;;;;;;5013372;28;20382;-75
2022/06/10 08:00:03;;;;;;;3.83;1.40;;;;;;;;;;5012928;28;20652;-75
2022/06/10 08:02:28;;;;;;;4.40;1.40;;;;;;;;;;5013173;28;20605;-76
2022/06/10 08:04:53;;;;;;;4.93;1.27;;;;;;;;;;5013202;28;20025;-75
2022/06/10 08:07:19;;;;;;;3.53;1.43;;;;;;;;;;4995295;28;20266;-75
2022/06/10 08:09:44;;;;;;;3.63;1.35;;;;;;;;;;5013267;28;20247;-76
2022/06/10 08:12:09;;;;;;;3.40;1.20;;;;;;;;;;5012755;28;20041;-75
2022/06/10 08:14:34;;;;;;;7.38;1.45;;;;;;;;;;5012917;28;20263;-75
2022/06/10 08:17:04;;;;;;;5.90;1.50;;;;;;;;;;5012920;28;20115;-75
2022/06/10 08:19:29;;;;;;;3.60;1.15;;;;;;;;;;5013466;28;20283;-77
2022/06/10 08:24:38;;;;;;;3.10;1.40;;;;;;;;;;5016976;28;20262;-76
2022/06/10 08:27:03;;;;;;;3.63;1.37;;;;;;;;;;5016780;28;20029;-76
2022/06/10 08:29:29;;;;;;;5.80;1.50;;;;;;;;;;5016697;28;20351;-76
2022/06/10 08:31:54;;;;;;;3.30;1.50;;;;;;;;;;5016723;28;20104;-76
2022/06/10 08:34:19;;;;;;;4.27;1.30;;;;;;;;;;5016228;28;20263;-77
2022/06/10 08:36:45;;;;;;;3.47;1.63;;;;;;;;;;5016451;28;20283;-77
2022/06/10 08:39:10;;;;;;;4.50;1.40;;;;;;;;;;5016528;28;20033;-76
2022/06/10 08:42:03;;;;;;;4.90;1.55;;;;;;;;;;5016292;28;20260;-76
2022/06/10 08:44:39;;;;;;;6.60;1.63;;;;;;;;;;5016582;28;20083;-76
2022/06/10 08:47:24;;;;;;;6.65;1.60;;;;;;;;;;4998846;28;20112;-77
2022/06/10 08:50:02;;;;;;;6.50;1.55;;;;;;;;;;4999268;28;20049;-77
2022/06/10 08:52:42;;;;;;;8.85;1.70;;;;;;;;;;4998423;28;20034;-77
2022/06/10 08:55:36;;;;;;;3.65;1.17;;;;;;;;;;5016521;28;20037;-77
2022/06/10 08:58:18;;;;;;;2.75;1.05;;;;;;;;;;5016175;28;20026;-77
2022/06/10 09:00:46;;;;;;;4.38;1.48;;;;;;;;;;5016335;28;20030;-77
2022/06/10 09:03:17;;;;;;;5.82;1.38;;;;;;;;;;4998270;28;20041;-76
2022/06/10 09:05:46;;;;;;;6.78;1.77;;;;;;;;;;5016624;28;20036;-74
2022/06/10 09:08:23;;;;;;;6.63;1.50;;;;;;;;;;5015924;28;20098;-75
2022/06/10 09:11:10;;;;;;;4.55;1.38;;;;;;;;;;5015957;28;20054;-77
2022/06/10 09:13:39;;;;;;;2.75;1.40;;;;;;;;;;5015790;28;20053;-78
2022/06/10 09:16:21;;;;;;;4.07;1.58;;;;;;;;;;5015652;28;20391;-76
2022/06/10 09:18:49;;;;;;;5.90;1.70;;;;;;;;;;4998799;28;20058;-77
2022/06/10 09:21:29;;;;;;;4.32;1.45;;;;;;;;;;5015721;28;20026;-77
2022/06/10 09:23:57;;;;;;;2.83;1.50;;;;;;;;;;5015513;28;20033;-77
2022/06/10 09:26:36;;;;;;;6.43;1.80;;;;;;;;;;4997737;28;20030;-76
2022/06/10 09:29:02;;;;;;;3.25;1.48;;;;;;;;;;5015798;28;20026;-77
2022/06/10 09:31:37;;;;;;;6.45;1.50;;;;;;;;;;5015069;28;20537;-76
2022/06/10 09:34:24;;;;;;;4.82;1.52;;;;;;;;;;5016058;28;20463;-77
2022/06/10 09:36:56;;;;;;;5.60;1.63;;;;;;;;;;5015605;28;20379;-77
2022/06/10 09:42:38;;;;;;;6.15;1.63;;;;;;;;;;5015628;28;20117;-77
2022/06/10 09:45:18;;;;;;;2.88;1.70;;;;;;;;;;5015331;28;20112;-77
2022/06/10 09:48:03;;;;;;;4.80;1.67;;;;;;;;;;5015059;28;20065;-76
2022/06/10 09:50:51;;;;;;;3.03;1.50;;;;;;;;;;5015304;28;20049;-78
2022/06/10 09:53:49;;;;;;;4.93;1.40;;;;;;;;;;5014906;28;20026;-76
2022/06/10 09:56:37;;;;;;;4.20;1.70;;;;;;;;;;5015710;28;20041;-73
2022/06/10 09:59:23;;;;;;;3.47;1.67;;;;;;;;;;5015150;28;20061;-74
2022/06/10 10:02:13;;;;;;;6.60;1.85;;;;;;;;;;5015212;28;20033;-73
2022/06/10 10:04:58;;;;;;;3.55;1.50;;;;;;;;;;5015321;28;20028;-74
2022/06/10 10:07:45;;;;;;;4.30;1.42;;;;;;;;;;4997649;28;20123;-74
2022/06/10 10:10:31;;;;;;;5.28;1.58;;;;;;;;;;5015379;28;20406;-73
2022/06/10 10:13:31;;;;;;;3.58;1.42;;;;;;;;;;5015241;28;20510;-74
2022/06/10 10:16:18;;;;;;;4.68;1.58;;;;;;;;;;5015560;28;20030;-74
2022/06/10 10:18:55;;;;;;;6.15;1.40;;;;;;;;;;5015125;28;20084;-74
2022/06/10 10:21:31;;;;;;;5.80;1.40;;;;;;;;;;5014270;28;20513;-75
2022/06/10 10:23:58;;;;;;;4.85;1.50;;;;;;;;;;5014465;28;20029;-75
2022/06/10 10:26:30;;;;;;;5.75;1.63;;;;;;;;;;5014680;28;20033;-75
2022/06/10 10:29:01;;;;;;;8.73;1.90;;;;;;;;;;5015337;28;20029;-76
2022/06/10 10:31:38;;;;;;;5.00;1.50;;;;;;;;;;4996771;28;20486;-76
2022/06/10 10:34:05;;;;;;;5.95;1.50;;;;;;;;;;4996428;28;20123;-77
2022/06/10 10:36:33;;;;;;;5.28;1.48;;;;;;;;;;5014263;28;20505;-77
2022/06/10 10:39:12;;;;;;;6.13;1.52;;;;;;;;;;5014185;28;20034;-75
2022/06/10 10:41:42;;;;;;;5.10;1.40;;;;;;;;;;4996249;28;20025;-76
2022/06/10 10:44:28;;;;;;;5.18;1.50;;;;;;;;;;5013464;28;20029;-77
2022/06/10 10:47:18;;;;;;;3.83;1.60;;;;;;;;;;5013990;28;20057;-78
2022/06/10 10:50:03;;;;;;;6.07;1.60;;;;;;;;;;5014112;28;20032;-76
2022/06/10 10:52:39;;;;;;;4.82;1.20;;;;;;;;;;5014154;28;20032;-76
2022/06/10 10:55:11;;;;;;;4.15;1.25;;;;;;;;;;5013523;28;20032;-75
2022/06/10 10:57:38;;;;;;;3.15;1.20;;;;;;;;;;4995997;28;20036;-76
2022/06/10 11:00:29;;;;;;;5.05;1.50;;;;;;;;;;4996058;28;20557;-75
2022/06/10 11:02:57;;;;;;;3.83;1.38;;;;;;;;;;5013647;28;20030;-76
2022/06/10 11:05:37;;;;;;;4.20;1.38;;;;;;;;;;5013674;28;20048;-76
2022/06/10 11:08:05;;;;;;;6.20;1.50;;;;;;;;;;5013977;28;20032;-77
2022/06/10 11:10:34;;;;;;;3.05;1.25;;;;;;;;;;5013514;28;20032;-76
2022/06/10 11:13:01;;;;;;;4.88;1.30;;;;;;;;;;5013393;28;20092;-76
2022/06/10 11:15:31;;;;;;;4.57;1.40;;;;;;;;;;4995894;28;20025;-76
2022/06/10 11:17:59;;;;;;;3.03;1.30;;;;;;;;;;4995993;28;20022;-76
2022/06/10 11:20:31;;;;;;;7.32;1.73;;;;;;;;;;5013625;28;20146;-76
2022/06/10 11:23:22;;;;;;;3.60;1.40;;;;;;;;;;5013659;28;20037;-75
2022/06/10 11:26:10;;;;;;;3.78;1.27;;;;;;;;;;5013619;28;20487;-75
2022/06/10 11:28:37;;;;;;;2.50;1.33;;;;;;;;;;5014220;28;20032;-76
2022/06/10 11:31:04;;;;;;;3.25;1.10;;;;;;;;;;5013610;28;20030;-75
2022/06/10 11:33:38;;;;;;;3.90;1.45;;;;;;;;;;4995322;28;20034;-76
2022/06/10 11:36:13;;;;;;;4.47;1.40;;;;;;;;;;5013548;28;20033;-77
2022/06/10 11:38:53;;;;;;;2.90;1.17;;;;;;;;;;5013962;28;20033;-76
2022/06/10 11:41:30;;;;;;;5.68;1.20;;;;;;;;;;5013522;28;20030;-76
2022/06/10 11:44:11;;;;;;;3.00;1.20;;;;;;;;;;5013180;28;20034;-77
2022/06/10 11:47:04;;;;;;;4.90;1.13;;;;;;;;;;5013440;28;20383;-76
2022/06/10 11:50:01;;;;;;;9.07;1.40;;;;;;;;;;5013293;28;20037;-76
2022/06/10 11:52:40;;;;;;;3.85;1.20;;;;;;;;;;4993756;28;20034;-75
2022/06/10 11:55:35;;;;;;;4.75;1.30;;;;;;;;;;5016801;28;20072;-75
2022/06/10 12:00:55;;;;;;;6.25;1.58;;;;;;;;;;5017230;28;20399;-76
2022/06/10 12:03:36;;;;;;;5.05;1.33;;;;;;;;;;5016723;28;20476;-77
2022/06/10 12:06:24;;;;;;;2.35;1.20;;;;;;;;;;5017304;28;20037;-75
2022/06/10 12:08:57;;;;;;;2.38;1.05;;;;;;;;;;5017167;28;20379;-77
2022/06/10 12:11:52;;;;;;;2.72;1.10;;;;;;;;;;5017073;28;20112;-77
2022/06/10 12:14:18;;;;;;;5.35;1.23;;;;;;;;;;4999194;28;20037;-76
2022/06/10 12:16:47;;;;;;;2.77;1.13;;;;;;;;;;5016749;28;20018;-76
2022/06/10 12:19:17;;;;;;;2.50;1.08;;;;;;;;;;5016828;28;20030;-76
2022/06/10 12:21:42;;;;;;;5.32;1.35;;;;;;;;;;5016769;28;20034;-77
2022/06/10 12:24:16;;;;;;;3.83;1.40;;;;;;;;;;4998946;28;20387;-77
2022/06/10 12:27:01;;;;;;;4.13;1.30;;;;;;;;;;4999107;28;20022;-77
2022/06/10 12:29:33;;;;;;;5.13;1.20;;;;;;;;;;5017120;28;20109;-76
2022/06/10 12:32:10;;;;;;;3.25;1.10;;;;;;;;;;5016578;28;20372;-77
2022/06/10 12:34:38;;;;;;;6.43;1.17;;;;;;;;;;4998995;28;20067;-77
2022/06/10 12:37:29;;;;;;;2.88;1.10;;;;;;;;;;5016861;28;20034;-75
2022/06/10 12:40:05;;;;;;;3.25;1.10;;;;;;;;;;4999848;28;20052;-76
2022/06/10 12:42:41;;;;;;;2.42;1.10;;;;;;;;;;5016256;28;20028;-77
2022/06/10 12:45:16;;;;;;;2.08;1.00;;;;;;;;;;5016555;28;20101;-76
2022/06/10 12:47:42;;;;;;;4.55;1.30;;;;;;;;;;5016387;28;20387;-77
2022/06/10 12:50:37;;;;;;;4.50;1.10;;;;;;;;;;4999082;28;20026;-78
2022/06/10 12:53:17;;;;;;;4.50;1.65;;;;;;;;;;5013190;28;20037;-78
2022/06/10 12:55:49;;;;;;;5.15;1.15;;;;;;;;;;5016794;28;20034;-76
2022/06/10 12:58:37;;;;;;;2.72;1.08;;;;;;;;;;5016563;28;20026;-78
2022/06/10 13:01:39;;;;;;;2.50;1.15;;;;;;;;;;5016056;28;20396;-76
2022/06/10 13:04:13;;;;;;;7.50;1.20;;;;;;;;;;5015776;28;20133;-77
2022/06/10 13:06:41;;;;;;;3.08;1.50;;;;;;;;;;5015405;28;20032;-76
2022/06/10 13:09:12;;;;;;;2.80;1.20;;;;;;;;;;5015953;28;20021;-78
2022/06/10 13:11:49;;;;;;;5.38;1.30;;;;;;;;;;5016560;28;20034;-78
2022/06/10 13:14:30;;;;;;;4.85;1.35;;;;;;;;;;5015921;28;20106;-77
2022/06/10 13:16:57;;;;;;;1.95;1.10;;;;;;;;;;5015954;28;20025;-77
2022/06/10 13:19:42;;;;;;;7.35;1.40;;;;;;;;;;5015630;28;20121;-76
2022/06/10 13:22:23;;;;;;;3.72;1.33;;;;;;;;;;5016253;28;20022;-77
2022/06/10 13:24:54;;;;;;;7.38;1.60;;;;;;;;;;5015633;28;20392;-77
2022/06/10 13:27:39;;;;;;;5.20;1.15;;;;;;;;;;5015511;28;20115;-77
2022/06/10 13:30:13;;;;;;;4.15;1.40;;;;;;;;;;5015495;28;20022;-77
2022/06/10 13:32:44;;;;;;;2.53;1.17;;;;;;;;;;5015111;28;20022;-76
2022/06/10 13:35:22;;;;;;;3.97;1.00;;;;;;;;;;4997720;28;20033;-77
2022/06/10 13:37:50;;;;;;;5.90;1.13;;;;;;;;;;5015294;28;20034;-76
2022/06/10 13:40:21;;;;;;;6.95;1.33;;;;;;;;;;5015286;28;20440;-77
2022/06/10 13:42:51;;;;;;;4.70;1.27;;;;;;;;;;4997528;28;20033;-76
2022/06/10 13:45:22;;;;;;;5.47;1.13;;;;;;;;;;5015305;28;20048;-77
2022/06/10 13:47:55;;;;;;;4.25;1.10;;;;;;;;;;4997788;28;20052;-77
2022/06/10 13:50:36;;;;;;;3.30;1.20;;;;;;;;;;5015033;28;20025;-76
2022/06/10 13:53:05;;;;;;;2.80;1.35;;;;;;;;;;5015192;28;20036;-76
2022/06/10 13:55:32;;;;;;;3.67;1.08;;;;;;;;;;5015101;28;20030;-76
2022/06/10 13:58:07;;;;;;;3.55;1.00;;;;;;;;;;5014973;28;20021;-77
2022/06/10 14:00:48;;;;;;;2.70;1.20;;;;;;;;;;5014747;28;20070;-77
2022/06/10 14:03:39;;;;;;;2.40;1.00;;;;;;;;;;5014951;28;20056;-77
2022/06/10 14:06:21;;;;;;;3.40;1.25;;;;;;;;;;4997411;28;20530;-77
2022/06/10 14:08:55;;;;;;;3.28;1.20;;;;;;;;;;5015192;28;20487;-76
2022/06/10 14:11:30;;;;;;;2.15;1.00;;;;;;;;;;5015308;28;20117;-77
2022/06/10 14:14:15;;;;;;;5.07;1.20;;;;;;;;;;5014503;28;20502;-77
2022/06/10 14:16:42;;;;;;;3.60;1.10;;;;;;;;;;5014571;28;20423;-77
2022/06/10 14:19:26;;;;;;;5.40;1.10;;;;;;;;;;5014388;28;20064;-77
2022/06/10 14:21:51;;;;;;;2.67;1.10;;;;;;;;;;5014857;28;20533;-77
2022/06/10 14:24:20;;;;;;;1.53;1.00;;;;;;;;;;5014455;28;20030;-77
2022/06/10 14:26:56;;;;;;;4.03;1.10;;;;;;;;;;5014355;28;20262;-77
2022/06/10 14:29:27;;;;;;;2.58;0.93;;;;;;;;;;5014742;28;20057;-76
2022/06/10 14:32:01;;;;;;;5.05;1.10;;;;;;;;;;5014243;28;20458;-76
2022/06/10 14:34:26;;;;;;;3.38;1.00;;;;;;;;;;5014652;28;20029;-76
2022/06/10 14:36:59;;;;;;;2.58;0.90;;;;;;;;;;5014678;28;20124;-77
2022/06/10 14:39:26;;;;;;;3.03;1.05;;;;;;;;;;5014205;28;20109;-76
2022/06/10 14:41:58;;;;;;;2.53;1.08;;;;;;;;;;5014278;28;20483;-77
2022/06/10 14:44:30;;;;;;;1.95;1.08;;;;;;;;;;5013781;28;20068;-77
2022/06/10 14:47:24;;;;;;;3.35;1.10;;;;;;;;;;5014017;28;20073;-76
2022/06/10 14:49:58;;;;;;;4.32;1.55;;;;;;;;;;4996541;28;20018;-77
2022/06/10 14:52:39;;;;;;;2.47;1.17;;;;;;;;;;4996576;28;20033;-77
2022/06/10 14:55:13;;;;;;;1.90;1.20;;;;;;;;;;5013647;28;20446;-76
2022/06/10 14:57:39;;;;;;;2.80;1.20;;;;;;;;;;4996278;28;20022;-77
2022/06/10 15:00:10;;;;;;;3.85;0.90;;;;;;;;;;5013827;28;20121;-78
2022/06/10 15:02:35;;;;;;;2.75;1.10;;;;;;;;;;5013749;28;20375;-77
2022/06/10 15:07:44;;;;;;;1.95;1.02;;;;;;;;;;5014285;28;20293;-76
2022/06/10 15:10:14;;;;;;;5.18;1.13;;;;;;;;;;4995964;28;20025;-77
2022/06/10 15:12:40;;;;;;;4.05;1.30;;;;;;;;;;5013636;28;20125;-76
2022/06/10 15:15:09;;;;;;;4.65;1.10;;;;;;;;;;4996073;28;20029;-76
2022/06/10 15:17:35;;;;;;;4.30;1.00;;;;;;;;;;4996174;28;20064;-76
2022/06/10 15:20:00;;;;;;;2.97;1.30;;;;;;;;;;5013920;28;20053;-76
2022/06/10 15:22:33;;;;;;;3.90;0.95;;;;;;;;;;5013327;28;20739;-76
2022/06/10 15:24:59;;;;;;;3.13;1.15;;;;;;;;;;5013424;28;20060;-76
2022/06/10 15:27:25;;;;;;;4.22;1.20;;;;;;;;;;5013382;28;20061;-76
2022/06/10 15:29:50;;;;;;;1.50;1.02;;;;;;;;;;4995253;28;20030;-76
2022/06/10 15:32:18;;;;;;;5.57;1.58;;;;;;;;;;5013206;28;20538;-76